If you wish to contribute or participate in the discussions about articles you are invited to join SKYbrary as a registered user

 Actions

Matsumoto Airport

From SKYbrary Wiki

RJAF
Airport
ICAO: RJAF – IATA: MMJ
Summary
Name Matsumoto Airport
Region Asia and Pacific
Territory Japan JP.gif
Location Matsumoto, Nagano Prefecture
Serving Matsumoto
Elevation 657.454 m
2,157 ft657.454 m
Coordinates 36° 9' 52.83" N, 137° 55' 34.90" E
Runways
Designator Length Width Surface ROPS
18/36 1999 m6,558.399 ft
46 m150.919 ft
ASP /


METAR
Observation RJAF 170600Z VRB01KT 9999 FEW030 SCT050 BKN080 18/08 Q1024
Station Matsumoto Airport
Date/Time 17 October 2019 06:00:00
Wind direction °
Wind speed 01 kts
Lowest cloud amount few clouds
Temperature 18°C
Dew point 8°C
Humidity 52%
QNH 1024 hPa
Weather condition n/a

Also known as Shinshu-Matsumoto Airport, is an airport located 9.3 km5.022 nm
9,300 m
30,511.811 ft
southwest of central Matsumoto, Nagano Prefecture, Japan.

Climatology

Humid Continental climate (Köppen climate classification Dfa)

Maps

Terrain

Loading map...

Airport Layout

Loading map...


Accidents & Serious Incidents at or in vicinity of RJAF

None on SKYbrary